Main page
METAR-TAF:

METAR-TAF

Airports :

Dehradun Airport

Dehradun, India

latitude: 30-11-23N, longitude: 78-10-49E, elevation: 558 m

METAR: missing

Time: 05:49 (00:19 UTC)

Forecast

The report was made 1 hour and 19 minutes ago, at 23:00 UTC
Forecast valid from 12 at 00 UTC to 12 at 09 UTC
Wind 5 kt from the Northeast
Visibility: 3000 m
Scattered clouds at a height of 3000 ft
Broken clouds at a height of 9000 ft
mist, rain
Becoming
from 12 at 05 UTC to 12 at 08 UTC
Wind 8 kt from the Northeast with gusts up to 18 kt
Visibility: 1500 m
Few clouds at a height of 3500 ft, Cumulonimbus.
Overcast at a height of 9000 ft
thunderstorm, rain

TAF: VIDN 112300Z 1200/1209 05005KT 3000 BR RA SCT030 BKN090 BECMG 1205/1208 05008G18KT 1500 TSRA FEW035CB OVC090

Weather observations and forecasts of more than 4000 airports (METAR and TAF reports).

The available stations are represented by yellow and red dots on the map.

Hover mouse over dot to see the name of the station.

Then click to see weather observations and forecasts.

To change the map : click on the green buttons with a black cross to zoom in, on the green button with a dash to zoom out, or on the green arrows for adjacent maps.


METAR-TAF: